Time;durP1;ratioP1;P1;durP2;ratioP2;P2;SDS_P1;SDS_P2;PMS_P1;PMS_P2;Temp;Humidity;BMP_temperature;BMP_pressure;BME280_temperature;BME280_humidity;BME280_pressure;Samples;Min_cycle;Max_cycle;Signal;HPM_P1;HPM_P2
2022/07/25 00:00:40;;;;;;;;;;;;;;;26.33;34.49;100519.22;5402436;32;35513;-75
2022/07/25 00:03:42;;;;;;;;;;;;;;;26.78;33.47;100521.69;5412292;32;33434;-73
2022/07/25 00:06:44;;;;;;;;;;;;;;;26.58;33.90;100517.53;5429719;32;35310;-74
2022/07/25 00:09:46;;;;;;;;;;;;;;;26.26;34.61;100502.84;5422169;32;35058;-75
2022/07/25 00:12:48;;;;;;;;;;;;;;;26.77;33.51;100519.16;5416000;32;35337;-71
2022/07/25 00:15:50;;;;;;;;;;;;;;;26.55;33.74;100513.31;5412700;32;35376;-73
2022/07/25 00:18:52;;;;;;;;;;;;;;;26.57;33.81;100508.59;5422970;32;34785;-74
2022/07/25 00:21:54;;;;;;;;;;;;;;;25.86;35.13;100509.62;5438729;32;34988;-75
2022/07/25 00:24:56;;;;;;;;;;;;;;;26.55;33.97;100504.41;5420023;32;36579;-73
2022/07/25 00:27:58;;;;;;;;;;;;;;;26.27;34.45;100506.38;5443459;32;34493;-74
2022/07/25 00:31:00;;;;;;;;;;;;;;;26.36;34.52;100506.28;5422406;32;35080;-74
2022/07/25 00:34:02;;;;;;;;;;;;;;;25.82;35.44;100500.16;5419584;32;35336;-73
2022/07/25 00:37:04;;;;;;;;;;;;;;;25.99;34.87;100495.75;5425421;32;34296;-73
2022/07/25 00:40:07;;;;;;;;;;;;;;;25.29;36.30;100502.81;5408469;32;47749;-77
2022/07/25 00:43:08;;;;;;;;;;;;;;;26.04;34.81;100504.22;5431399;32;34732;-73
2022/07/25 00:46:11;;;;;;;;;;;;;;;26.31;34.15;100503.22;5424364;32;35973;-75
2022/07/25 00:49:14;;;;;;;;;;;;;;;26.00;34.64;100508.19;5430491;32;35407;-77
2022/07/25 00:52:16;;;;;;;;;;;;;;;26.32;34.15;100512.13;5411450;32;35368;-74
2022/07/25 00:55:17;;;;;;;;;;;;;;;25.82;35.00;100505.53;5425148;32;34217;-73
2022/07/25 00:58:19;;;;;;;;;;;;;;;26.26;34.06;100507.38;5409299;32;35237;-76
2022/07/25 01:01:21;;;;;;;;;;;;;;;25.70;35.04;100504.06;5390532;32;35619;-73
2022/07/25 01:04:23;;;;;;;;;;;;;;;25.78;35.05;100488.03;5439124;32;35630;-73
2022/07/25 01:07:25;;;;;;;;;;;;;;;25.87;34.92;100505.91;5400212;32;34768;-77
2022/07/25 01:10:28;;;;;;;;;;;;;;;26.16;34.20;100511.03;5435940;32;35632;-76
2022/07/25 01:13:33;;;;;;;;;;;;;;;25.86;34.49;100506.91;5426645;32;35401;-73
2022/07/25 01:16:35;;;;;;;;;;;;;;;25.76;34.98;100497.22;5406538;32;44644;-75
2022/07/25 01:19:37;;;;;;;;;;;;;;;25.69;34.98;100504.19;5436977;32;34726;-73
2022/07/25 01:22:39;;;;;;;;;;;;;;;25.72;35.00;100501.22;5428221;32;35135;-73
2022/07/25 01:25:41;;;;;;;;;;;;;;;25.80;34.83;100498.63;5430097;32;36679;-74
2022/07/25 01:28:43;;;;;;;;;;;;;;;25.07;36.72;100496.88;5431548;32;35385;-75
2022/07/25 01:31:44;;;;;;;;;;;;;;;25.07;36.72;100494.19;5419567;32;36962;-75
2022/07/25 01:34:46;;;;;;;;;;;;;;;25.68;35.49;100489.91;5417913;32;34812;-76
2022/07/25 01:37:48;;;;;;;;;;;;;;;24.92;36.84;100497.47;5409826;32;34872;-75
2022/07/25 01:40:50;;;;;;;;;;;;;;;25.48;35.29;100478.47;5428012;32;34796;-72
2022/07/25 01:43:52;;;;;;;;;;;;;;;25.26;35.85;100492.38;5409781;32;34807;-75
2022/07/25 01:46:54;;;;;;;;;;;;;;;25.89;34.43;100493.16;5448613;32;35025;-76
2022/07/25 01:49:56;;;;;;;;;;;;;;;26.02;34.19;100482.00;5417801;32;34800;-73
2022/07/25 01:52:58;;;;;;;;;;;;;;;26.12;34.16;100482.72;5443394;32;34867;-75
2022/07/25 01:56:00;;;;;;;;;;;;;;;25.70;35.20;100481.66;5400169;32;35080;-75
2022/07/25 01:59:04;;;;;;;;;;;;;;;25.11;36.83;100489.34;5392641;32;35366;-75
2022/07/25 02:02:06;;;;;;;;;;;;;;;26.40;34.35;100488.81;5439351;32;46782;-73
2022/07/25 02:05:08;;;;;;;;;;;;;;;26.26;34.29;100481.28;5408825;32;34602;-76
2022/07/25 02:08:10;;;;;;;;;;;;;;;26.08;34.76;100489.44;5434369;32;35185;-72
2022/07/25 02:11:12;;;;;;;;;;;;;;;26.35;34.26;100480.34;5415817;32;35402;-75
2022/07/25 02:14:15;;;;;;;;;;;;;;;25.67;35.12;100456.75;5433527;32;36265;-75
2022/07/25 02:17:16;;;;;;;;;;;;;;;25.62;35.84;100471.69;5404733;32;37688;-73
2022/07/25 02:20:18;;;;;;;;;;;;;;;26.24;34.45;100475.22;5416543;32;34846;-74
2022/07/25 02:23:21;;;;;;;;;;;;;;;25.95;35.37;100480.91;5432158;32;36466;-76
2022/07/25 02:26:23;;;;;;;;;;;;;;;26.39;34.73;100475.47;5418919;32;35131;-73
2022/07/25 02:29:25;;;;;;;;;;;;;;;26.53;34.35;100485.66;5435168;32;34729;-77
2022/07/25 02:32:26;;;;;;;;;;;;;;;26.31;34.95;100486.19;5400887;32;35625;-72
2022/07/25 02:35:28;;;;;;;;;;;;;;;26.55;33.97;100478.28;5435846;32;34774;-73
2022/07/25 02:38:30;;;;;;;;;;;;;;;26.40;34.59;100480.72;5415983;32;34888;-75
2022/07/25 02:41:32;;;;;;;;;;;;;;;25.59;36.07;100467.47;5411064;32;35291;-74
2022/07/25 02:44:34;;;;;;;;;;;;;;;25.51;36.45;100488.09;5447689;32;34511;-75
2022/07/25 02:47:36;;;;;;;;;;;;;;;25.59;36.76;100490.84;5418664;32;44572;-77
2022/07/25 02:50:38;;;;;;;;;;;;;;;25.73;36.85;100482.25;5419225;32;35910;-76
2022/07/25 02:53:40;;;;;;;;;;;;;;;25.81;36.89;100478.78;5403426;32;35010;-75
2022/07/25 02:56:58;;;;;;;;;;;;;;;25.55;37.23;100484.06;5420709;32;34496;-73
2022/07/25 03:00:00;;;;;;;;;;;;;;;25.28;38.33;100498.44;5402099;32;35293;-73
2022/07/25 03:03:02;;;;;;;;;;;;;;;25.04;38.64;100502.53;5412465;32;35244;-76
2022/07/25 03:06:05;;;;;;;;;;;;;;;25.14;38.06;100501.66;5417205;32;35437;-75
2022/07/25 03:09:06;;;;;;;;;;;;;;;24.81;38.83;100499.38;5408710;32;46552;-73
2022/07/25 03:12:08;;;;;;;;;;;;;;;24.87;38.53;100505.16;5439333;32;35454;-75
2022/07/25 03:15:11;;;;;;;;;;;;;;;24.41;39.06;100497.00;5423701;32;34351;-73
2022/07/25 03:18:13;;;;;;;;;;;;;;;24.26;40.16;100506.47;5422389;32;34873;-76
2022/07/25 03:21:15;;;;;;;;;;;;;;;23.63;41.19;100490.88;5414268;32;34715;-73
2022/07/25 03:24:17;;;;;;;;;;;;;;;24.00;40.38;100516.97;5425806;32;36188;-75
2022/07/25 03:27:19;;;;;;;;;;;;;;;23.98;40.30;100514.44;5450919;32;35349;-75
2022/07/25 03:30:21;;;;;;;;;;;;;;;23.52;40.87;100502.56;5426365;32;35786;-75
2022/07/25 03:33:23;;;;;;;;;;;;;;;24.24;39.48;100516.53;5437236;32;37247;-73
2022/07/25 03:36:25;;;;;;;;;;;;;;;23.60;40.70;100517.12;5416702;32;35240;-73
2022/07/25 03:39:27;;;;;;;;;;;;;;;23.96;40.16;100518.28;5423249;32;34472;-75
2022/07/25 03:42:29;;;;;;;;;;;;;;;23.30;42.01;100526.94;5421771;32;35658;-75
2022/07/25 03:45:36;;;;;;;;;;;;;;;23.78;40.88;100524.34;5404409;32;48300;-75
2022/07/25 03:48:38;;;;;;;;;;;;;;;24.13;40.31;100533.62;5416591;32;35611;-75
2022/07/25 03:51:40;;;;;;;;;;;;;;;22.96;42.88;100526.44;5429774;32;36001;-73
2022/07/25 03:54:42;;;;;;;;;;;;;;;24.26;40.33;100523.44;5420228;32;35290;-79
2022/07/25 03:57:44;;;;;;;;;;;;;;;23.73;41.63;100531.13;5427947;32;35640;-74
2022/07/25 04:00:47;;;;;;;;;;;;;;;23.61;42.15;100524.16;5402865;32;34933;-73
2022/07/25 04:03:49;;;;;;;;;;;;;;;23.57;42.39;100523.62;5423512;32;35534;-76
2022/07/25 04:06:51;;;;;;;;;;;;;;;23.62;42.26;100529.41;5401539;32;35442;-73
2022/07/25 04:09:53;;;;;;;;;;;;;;;23.58;42.33;100528.00;5426930;32;34991;-75
2022/07/25 04:12:55;;;;;;;;;;;;;;;23.86;42.07;100523.62;5415548;32;34894;-76
2022/07/25 04:15:57;;;;;;;;;;;;;;;23.78;42.33;100519.00;5417271;32;35278;-75
2022/07/25 04:18:59;;;;;;;;;;;;;;;24.81;40.08;100515.50;5415694;32;35546;-75
2022/07/25 04:22:02;;;;;;;;;;;;;;;23.43;43.46;100526.69;5430056;32;34868;-75
2022/07/25 04:25:05;;;;;;;;;;;;;;;23.42;43.43;100523.16;5434228;32;35049;-72
2022/07/25 04:28:06;;;;;;;;;;;;;;;23.36;43.68;100530.91;5400727;32;45649;-73
2022/07/25 04:31:08;;;;;;;;;;;;;;;24.41;41.45;100521.19;5432363;32;35381;-73
2022/07/25 04:34:10;;;;;;;;;;;;;;;25.22;39.60;100537.53;5410424;32;35342;-73
2022/07/25 04:37:12;;;;;;;;;;;;;;;24.60;40.18;100536.38;5424563;32;34824;-77
2022/07/25 04:40:14;;;;;;;;;;;;;;;24.06;42.11;100532.53;5403632;32;37297;-78
2022/07/25 04:43:16;;;;;;;;;;;;;;;24.96;40.31;100526.62;5410674;32;35300;-77
2022/07/25 04:46:18;;;;;;;;;;;;;;;25.61;38.66;100529.19;5431783;32;34553;-77
2022/07/25 04:49:21;;;;;;;;;;;;;;;26.83;36.56;100523.91;5411268;32;34994;-73
2022/07/25 04:52:23;;;;;;;;;;;;;;;27.60;34.60;100521.97;5417787;32;34663;-77
2022/07/25 04:55:25;;;;;;;;;;;;;;;26.95;35.68;100533.41;5416697;32;34818;-76
2022/07/25 04:58:26;;;;;;;;;;;;;;;28.51;32.72;100519.94;5407207;32;33268;-77
2022/07/25 05:01:28;;;;;;;;;;;;;;;27.38;34.88;100523.47;5413279;32;34993;-73
2022/07/25 05:04:31;;;;;;;;;;;;;;;28.27;32.76;100525.34;5411017;32;35290;-74
2022/07/25 05:07:35;;;;;;;;;;;;;;;28.59;31.73;100522.59;5424404;32;43866;-73
2022/07/25 05:10:37;;;;;;;;;;;;;;;28.24;32.66;100525.72;5409371;32;34774;-78
2022/07/25 05:16:50;;;;;;;;;;;;;;;29.57;30.20;100511.37;5461429;26;20636;-93
2022/07/25 05:19:53;;;;;;;;;;;;;;;31.58;26.75;100504.06;5393447;32;33332;-93
2022/07/25 05:22:55;;;;;;;;;;;;;;;30.72;27.57;100525.59;5410549;32;34387;-96
2022/07/25 05:25:58;;;;;;;;;;;;;;;31.66;26.51;100514.81;5410758;32;35637;-92
2022/07/25 05:29:00;;;;;;;;;;;;;;;29.65;28.98;100519.44;5393764;32;34119;-94
2022/07/25 05:32:02;;;;;;;;;;;;;;;28.51;30.86;100519.94;5406208;32;33376;-93
2022/07/25 05:35:06;;;;;;;;;;;;;;;28.82;29.32;100511.06;5408569;32;34349;-94
2022/07/25 05:38:12;;;;;;;;;;;;;;;29.62;28.81;100506.25;5406005;32;35618;-93
2022/07/25 05:41:15;;;;;;;;;;;;;;;29.63;28.39;100513.38;5391147;32;34616;-90
2022/07/25 05:44:17;;;;;;;;;;;;;;;29.54;28.83;100503.59;5416592;32;33861;-86
2022/07/25 05:47:20;;;;;;;;;;;;;;;29.46;29.50;100511.75;5398581;32;44370;-92
2022/07/25 05:50:22;;;;;;;;;;;;;;;28.28;31.20;100510.84;5386930;32;34249;-88
2022/07/25 05:53:24;;;;;;;;;;;;;;;28.71;30.07;100514.13;5388362;32;34449;-91
2022/07/25 05:56:26;;;;;;;;;;;;;;;30.02;28.24;100503.41;5398021;32;35360;-90
2022/07/25 05:59:28;;;;;;;;;;;;;;;30.56;27.51;100508.63;5383474;32;35697;-89
2022/07/25 06:02:30;;;;;;;;;;;;;;;32.37;24.73;100497.66;5386311;32;34056;-88
2022/07/25 06:05:33;;;;;;;;;;;;;;;30.81;27.13;100509.22;5387420;32;33931;-91
2022/07/25 06:08:35;;;;;;;;;;;;;;;29.00;29.08;100514.38;5372089;32;34625;-90
2022/07/25 06:11:37;;;;;;;;;;;;;;;31.20;26.21;100511.56;5395121;32;35309;-90
2022/07/25 06:14:59;;;;;;;;;;;;;;;33.38;23.10;100502.34;5399046;32;34878;-92
2022/07/25 06:18:01;;;;;;;;;;;;;;;30.35;27.08;100506.66;5361682;32;35130;-91
2022/07/25 06:21:03;;;;;;;;;;;;;;;31.67;25.41;100502.91;5404161;32;35373;-91
2022/07/25 06:24:05;;;;;;;;;;;;;;;29.85;27.69;100508.09;5375432;32;34809;-90
2022/07/25 06:27:08;;;;;;;;;;;;;;;31.00;26.05;100503.19;5405398;32;34259;-90
2022/07/25 06:30:11;;;;;;;;;;;;;;;30.87;26.51;100497.59;5384428;32;35181;-91
2022/07/25 06:33:21;;;;;;;;;;;;;;;31.07;26.07;100498.69;5400382;32;43275;-88
2022/07/25 06:36:23;;;;;;;;;;;;;;;30.25;27.37;100503.34;5396931;32;34348;-89
2022/07/25 06:39:33;;;;;;;;;;;;;;;30.85;26.53;100497.78;5385757;32;34298;-91
2022/07/25 06:42:42;;;;;;;;;;;;;;;33.02;23.28;100491.75;5393959;32;35428;-95
2022/07/25 06:45:48;;;;;;;;;;;;;;;34.74;20.87;100493.72;5406105;32;32932;-95
2022/07/25 06:48:51;;;;;;;;;;;;;;;34.69;20.88;100488.06;5400790;32;44754;-94
2022/07/25 06:51:53;;;;;;;;;;;;;;;33.25;22.75;100487.84;5360300;32;35472;-90
2022/07/25 06:55:10;;;;;;;;;;;;;;;34.14;21.53;100474.75;5396288;32;34268;-96
2022/07/25 06:58:17;;;;;;;;;;;;;;;34.81;20.90;100478.16;5419946;32;35682;-92
2022/07/25 07:01:23;;;;;;;;;;;;;;;35.54;20.00;100473.19;5394763;32;34728;-95
2022/07/25 07:04:26;;;;;;;;;;;;;;;33.17;23.07;100482.56;5395693;32;35834;-94
2022/07/25 07:07:28;;;;;;;;;;;;;;;33.70;22.21;100469.94;5394747;32;36298;-94
2022/07/25 07:10:30;;;;;;;;;;;;;;;33.31;22.66;100471.53;5399626;32;34000;-91
2022/07/25 07:13:33;;;;;;;;;;;;;;;34.63;21.27;100461.66;5409045;32;34220;-92
2022/07/25 07:16:35;;;;;;;;;;;;;;;36.05;19.39;100460.37;5391861;32;33427;-94
2022/07/25 07:19:43;;;;;;;;;;;;;;;35.76;19.84;100457.25;5437842;32;32315;-92
2022/07/25 07:22:46;;;;;;;;;;;;;;;36.41;18.92;100454.16;5378335;32;34805;-92
2022/07/25 07:25:49;;;;;;;;;;;;;;;35.26;20.30;100462.62;5415476;32;43624;-92
2022/07/25 07:28:53;;;;;;;;;;;;;;;35.28;20.35;100459.66;5330301;32;1824723;-92
2022/07/25 07:31:55;;;;;;;;;;;;;;;32.30;23.98;100459.53;5411893;32;35351;-93
2022/07/25 07:34:57;;;;;;;;;;;;;;;34.89;20.57;100449.78;5402449;32;34589;-93
2022/07/25 07:38:09;;;;;;;;;;;;;;;35.85;19.61;100452.31;5403063;32;34799;-96
2022/07/25 07:41:20;;;;;;;;;;;;;;;36.16;19.22;100456.06;5403330;32;44256;-93
2022/07/25 07:44:23;;;;;;;;;;;;;;;34.33;21.09;100456.69;5395021;32;33364;-92
2022/07/25 07:47:25;;;;;;;;;;;;;;;33.11;22.75;100457.87;5403351;32;33699;-94
2022/07/25 07:50:27;;;;;;;;;;;;;;;35.57;20.05;100441.00;5397693;32;34560;-93
2022/07/25 07:56:54;;;;;;;;;;;;;;;34.79;20.60;100452.97;5429646;32;43580;-94
2022/07/25 07:59:57;;;;;;;;;;;;;;;33.73;21.58;100450.41;5413672;32;33869;-93
2022/07/25 08:02:59;;;;;;;;;;;;;;;37.40;17.35;100439.16;5413982;32;34579;-92
2022/07/25 08:06:02;;;;;;;;;;;;;;;35.69;19.25;100452.91;5423110;32;34390;-92
2022/07/25 08:09:08;;;;;;;;;;;;;;;35.67;19.16;100444.06;5416211;32;35625;-96
2022/07/25 08:12:11;;;;;;;;;;;;;;;38.39;16.32;100435.78;5409481;32;34279;-96
2022/07/25 08:15:14;;;;;;;;;;;;;;;38.24;16.26;100440.91;5399999;32;34515;-93
2022/07/25 08:18:17;;;;;;;;;;;;;;;39.50;15.05;100439.06;5409428;32;35229;-92
2022/07/25 08:21:19;;;;;;;;;;;;;;;39.42;15.32;100442.25;5399243;32;43925;-95
2022/07/25 08:24:41;;;;;;;;;;;;;;;37.65;17.06;100436.22;5415689;32;37461;-96
2022/07/25 08:27:49;;;;;;;;;;;;;;;37.60;17.08;100429.78;5409727;27;36049;-94
2022/07/25 08:31:04;;;;;;;;;;;;;;;36.33;18.33;100421.59;5393491;32;36693;-94
2022/07/25 08:34:21;;;;;;;;;;;;;;;34.49;20.19;100433.56;5366612;32;32993;-93
2022/07/25 08:37:23;;;;;;;;;;;;;;;37.01;17.95;100429.59;5356171;32;34185;-90
2022/07/25 08:40:32;;;;;;;;;;;;;;;36.16;18.96;100415.03;5359403;32;35579;-96
2022/07/25 08:46:50;;;;;;;;;;;;;;;38.21;16.57;100415.63;5338539;32;44301;-75
2022/07/25 08:49:52;;;;;;;;;;;;;;;39.95;15.04;100405.12;5335944;32;35620;-79
2022/07/25 08:52:54;;;;;;;;;;;;;;;38.90;15.65;100410.22;5344606;32;34432;-75
2022/07/25 08:56:16;;;;;;;;;;;;;;;38.64;15.84;100405.25;5350317;32;34722;-74
2022/07/25 08:59:22;;;;;;;;;;;;;;;37.05;17.51;100405.31;5348913;32;44425;-79
2022/07/25 09:02:24;;;;;;;;;;;;;;;37.18;17.74;100407.03;5346193;32;34447;-78
2022/07/25 09:05:27;;;;;;;;;;;;;;;35.53;19.27;100403.19;5340159;32;34251;-75
2022/07/25 09:08:29;;;;;;;;;;;;;;;36.61;18.40;100397.25;5338260;32;35406;-77
2022/07/25 09:11:35;;;;;;;;;;;;;;;38.01;16.53;100392.38;5339012;32;33925;-77
2022/07/25 09:14:41;;;;;;;;;;;;;;;38.24;16.51;100394.25;5357237;32;34517;-76
2022/07/25 09:17:48;;;;;;;;;;;;;;;38.26;17.03;100395.72;5344021;32;35317;-78
2022/07/25 09:20:52;;;;;;;;;;;;;;;39.75;14.72;100370.75;5354775;32;44583;-76
2022/07/25 09:23:54;;;;;;;;;;;;;;;37.56;16.95;100373.75;5329420;32;35813;-76
2022/07/25 09:26:57;;;;;;;;;;;;;;;40.01;14.77;100373.84;5341518;32;37562;-77
2022/07/25 09:29:59;;;;;;;;;;;;;;;39.58;15.03;100369.06;5345582;32;34409;-78
2022/07/25 09:33:03;;;;;;;;;;;;;;;39.58;14.89;100369.91;5345405;32;35411;-76
2022/07/25 09:36:09;;;;;;;;;;;;;;;37.84;16.82;100375.81;5342340;32;34291;-76
2022/07/25 09:39:11;;;;;;;;;;;;;;;40.75;13.86;100365.16;5339899;32;35191;-76
2022/07/25 09:42:15;;;;;;;;;;;;;;;38.90;15.21;100368.16;5359736;32;34221;-76
2022/07/25 09:45:17;;;;;;;;;;;;;;;40.59;13.88;100358.66;5345057;32;35754;-77
2022/07/25 09:48:19;;;;;;;;;;;;;;;41.44;13.01;100362.53;5358152;32;44658;-78
2022/07/25 09:51:22;;;;;;;;;;;;;;;40.59;13.76;100348.47;5336022;32;34329;-79
2022/07/25 09:54:24;;;;;;;;;;;;;;;41.72;12.93;100353.06;5340662;32;34128;-78
2022/07/25 09:57:26;;;;;;;;;;;;;;;41.68;12.68;100343.66;5340769;32;34244;-78
2022/07/25 10:00:28;;;;;;;;;;;;;;;39.47;14.68;100351.56;5353127;32;32351;-77
2022/07/25 10:03:45;;;;;;;;;;;;;;;40.64;13.64;100350.44;5359587;32;34561;-76
2022/07/25 10:07:03;;;;;;;;;;;;;;;40.60;13.69;100343.81;5340563;32;45020;-77
2022/07/25 10:10:05;;;;;;;;;;;;;;;39.56;14.47;100338.25;5357944;32;34225;-76
2022/07/25 10:13:10;;;;;;;;;;;;;;;38.30;15.62;100349.41;5345179;32;34224;-78
2022/07/25 10:16:30;;;;;;;;;;;;;;;39.41;14.33;100333.31;5342863;32;33101;-77
2022/07/25 10:19:38;;;;;;;;;;;;;;;42.15;12.14;100315.22;5359613;32;32941;-77
2022/07/25 10:22:44;;;;;;;;;;;;;;;41.79;12.47;100315.03;5343602;32;34969;-78
2022/07/25 10:26:08;;;;;;;;;;;;;;;39.39;14.67;100310.75;5346393;32;44621;-77
2022/07/25 10:29:10;;;;;;;;;;;;;;;39.75;14.35;100315.72;5346590;32;34952;-77
2022/07/25 10:32:12;;;;;;;;;;;;;;;39.70;14.34;100307.41;5354878;32;35332;-77
2022/07/25 10:35:18;;;;;;;;;;;;;;;41.45;12.65;100302.69;5343378;32;37866;-77
2022/07/25 10:38:23;;;;;;;;;;;;;;;39.50;14.13;100307.09;5340857;32;44562;-76
2022/07/25 10:41:28;;;;;;;;;;;;;;;38.62;14.72;100305.81;5356789;32;34337;-76
2022/07/25 10:44:43;;;;;;;;;;;;;;;36.55;17.24;100296.06;5358234;32;34203;-77
2022/07/25 10:47:50;;;;;;;;;;;;;;;39.79;13.71;100289.34;5346079;32;34377;-77
2022/07/25 10:50:56;;;;;;;;;;;;;;;38.45;15.03;100284.66;5338817;32;44665;-75
2022/07/25 10:53:58;;;;;;;;;;;;;;;40.29;13.32;100280.09;5342205;32;35533;-75
2022/07/25 10:57:00;;;;;;;;;;;;;;;40.32;12.89;100285.09;5359561;32;34648;-74
2022/07/25 11:00:04;;;;;;;;;;;;;;;38.07;14.97;100277.03;5345012;32;35435;-75
2022/07/25 11:03:05;;;;;;;;;;;;;;;39.68;13.19;100271.06;5356135;32;35167;-76
2022/07/25 11:06:07;;;;;;;;;;;;;;;39.64;13.24;100267.16;5347434;32;34499;-80
2022/07/25 11:09:13;;;;;;;;;;;;;;;38.05;14.49;100272.84;5340203;32;34823;-75
2022/07/25 11:12:19;;;;;;;;;;;;;;;40.35;12.90;100261.72;5358914;32;44586;-74
2022/07/25 11:15:25;;;;;;;;;;;;;;;40.18;13.24;100252.72;5344701;32;35728;-79
2022/07/25 11:18:32;;;;;;;;;;;;;;;40.06;13.51;100245.44;5348998;32;34412;-76
2022/07/25 11:21:42;;;;;;;;;;;;;;;39.52;14.10;100247.16;5348685;32;34375;-75
2022/07/25 11:24:45;;;;;;;;;;;;;;;40.99;12.72;100241.69;5338152;32;34271;-75
2022/07/25 11:27:49;;;;;;;;;;;;;;;40.75;12.68;100235.69;5339192;32;45251;-74
2022/07/25 11:30:51;;;;;;;;;;;;;;;42.03;11.25;100237.31;5340687;32;34245;-75
2022/07/25 11:33:53;;;;;;;;;;;;;;;44.33;9.47;100224.06;5354785;32;36628;-74
2022/07/25 11:36:56;;;;;;;;;;;;;;;42.86;10.08;100220.63;5339665;32;32605;-74
2022/07/25 11:39:58;;;;;;;;;;;;;;;43.59;9.40;100211.94;5350587;32;32820;-75
2022/07/25 11:43:03;;;;;;;;;;;;;;;42.88;9.98;100208.19;5343309;32;34400;-74
2022/07/25 11:46:05;;;;;;;;;;;;;;;44.70;8.62;100202.19;5348647;32;34090;-75
2022/07/25 11:49:08;;;;;;;;;;;;;;;45.26;8.13;100198.03;5343377;32;34294;-75
2022/07/25 11:52:24;;;;;;;;;;;;;;;43.45;9.41;100192.34;5335633;32;35024;-75
2022/07/25 11:55:30;;;;;;;;;;;;;;;43.58;8.55;100200.03;5360850;32;44629;-75
2022/07/25 11:58:32;;;;;;;;;;;;;;;45.17;7.13;100181.22;5346581;32;34510;-75
2022/07/25 12:01:36;;;;;;;;;;;;;;;42.86;7.98;100187.47;5352894;32;34234;-75
2022/07/25 12:04:38;;;;;;;;;;;;;;;42.44;8.77;100180.25;5346838;32;35410;-74
2022/07/25 12:07:40;;;;;;;;;;;;;;;42.36;9.31;100175.28;5342955;32;34143;-74
2022/07/25 12:10:42;;;;;;;;;;;;;;;42.21;9.62;100167.84;5355094;32;35602;-73
2022/07/25 12:13:44;;;;;;;;;;;;;;;44.69;7.98;100166.41;5346065;32;34876;-74
2022/07/25 12:16:46;;;;;;;;;;;;;;;45.42;7.91;100170.97;5356905;32;34610;-75
2022/07/25 12:19:48;;;;;;;;;;;;;;;44.38;8.51;100166.69;5343028;32;46440;-75
2022/07/25 12:22:51;;;;;;;;;;;;;;;41.46;10.03;100155.41;5356386;32;35606;-71
2022/07/25 12:25:53;;;;;;;;;;;;;;;41.64;10.37;100172.31;5351640;32;34789;-73
2022/07/25 12:28:55;;;;;;;;;;;;;;;38.99;11.98;100161.44;5343703;32;34176;-76
2022/07/25 12:31:58;;;;;;;;;;;;;;;39.83;11.20;100151.31;5353264;32;35276;-79
2022/07/25 12:35:00;;;;;;;;;;;;;;;38.91;11.57;100139.91;5349001;32;34289;-77
2022/07/25 12:38:02;;;;;;;;;;;;;;;38.17;12.99;100145.50;5358382;32;33800;-74
2022/07/25 12:41:04;;;;;;;;;;;;;;;37.49;13.80;100138.13;5337213;32;34140;-75
2022/07/25 12:44:06;;;;;;;;;;;;;;;37.15;14.33;100137.09;5356260;32;34994;-86
2022/07/25 12:47:10;;;;;;;;;;;;;;;35.32;15.98;100138.53;5350585;32;34267;-81
2022/07/25 12:50:13;;;;;;;;;;;;;;;36.60;14.39;100126.47;5330635;32;34767;-78
2022/07/25 12:53:15;;;;;;;;;;;;;;;35.64;15.39;100114.63;5338495;32;35098;-88
2022/07/25 12:56:17;;;;;;;;;;;;;;;36.33;14.58;100123.31;5343695;32;35103;-87
2022/07/25 12:59:19;;;;;;;;;;;;;;;35.33;15.54;100118.34;5354198;32;44806;-76
2022/07/25 13:02:21;;;;;;;;;;;;;;;35.54;15.17;100111.59;5341273;32;36714;-77
2022/07/25 13:05:25;;;;;;;;;;;;;;;35.54;15.39;100109.69;5352846;32;34676;-79
2022/07/25 13:08:27;;;;;;;;;;;;;;;35.49;15.07;100104.09;5346929;32;34675;-79
2022/07/25 13:11:30;;;;;;;;;;;;;;;34.92;15.74;100097.19;5342325;32;33916;-78
2022/07/25 13:14:31;;;;;;;;;;;;;;;34.52;16.09;100096.66;5358601;32;35328;-78
2022/07/25 13:17:34;;;;;;;;;;;;;;;35.31;14.51;100086.84;5346881;32;38137;-75
2022/07/25 13:20:36;;;;;;;;;;;;;;;34.71;15.21;100087.47;5360017;32;34277;-75
2022/07/25 13:23:38;;;;;;;;;;;;;;;34.38;15.92;100087.72;5343074;32;34139;-75
2022/07/25 13:26:40;;;;;;;;;;;;;;;35.23;15.42;100080.66;5348497;32;34975;-81
2022/07/25 13:29:42;;;;;;;;;;;;;;;35.56;14.61;100081.31;5367273;32;35449;-76
2022/07/25 13:32:46;;;;;;;;;;;;;;;34.18;16.04;100066.06;5346457;32;34402;-76
2022/07/25 13:35:48;;;;;;;;;;;;;;;35.38;15.42;100068.47;5362098;32;42004;-77
2022/07/25 13:38:50;;;;;;;;;;;;;;;34.59;16.33;100065.56;5348418;32;34381;-72
2022/07/25 13:41:52;;;;;;;;;;;;;;;34.83;16.36;100063.81;5360428;32;34238;-74
2022/07/25 13:44:54;;;;;;;;;;;;;;;34.92;15.99;100064.41;5345865;32;35158;-74
2022/07/25 13:47:56;;;;;;;;;;;;;;;35.80;15.18;100052.97;5347548;32;34368;-74
2022/07/25 13:51:18;;;;;;;;;;;;;;;35.71;15.13;100044.28;5348190;32;44975;-75
2022/07/25 13:54:22;;;;;;;;;;;;;;;34.52;16.30;100039.38;5347735;32;36281;-71
2022/07/25 13:57:24;;;;;;;;;;;;;;;35.68;15.05;100025.62;5362117;32;34291;-75
2022/07/25 14:00:29;;;;;;;;;;;;;;;35.44;15.17;100027.44;5345178;32;34235;-71
2022/07/25 14:03:31;;;;;;;;;;;;;;;35.03;15.86;100019.09;5353958;32;35486;-78
2022/07/25 14:06:33;;;;;;;;;;;;;;;35.44;15.61;100016.50;5349266;32;34271;-85
2022/07/25 14:09:35;;;;;;;;;;;;;;;35.03;15.70;100025.41;5354740;32;35791;-79
2022/07/25 14:12:38;;;;;;;;;;;;;;;35.86;15.26;100013.78;5356298;32;34052;-72
2022/07/25 14:15:40;;;;;;;;;;;;;;;35.83;15.11;100011.53;5350033;32;36061;-71
2022/07/25 14:18:42;;;;;;;;;;;;;;;34.67;16.18;99997.03;5359261;32;33277;-71
2022/07/25 14:21:44;;;;;;;;;;;;;;;35.30;15.54;100003.25;5355912;32;32984;-72
2022/07/25 14:24:47;;;;;;;;;;;;;;;35.34;15.41;99996.22;5359264;32;35219;-76
2022/07/25 14:27:49;;;;;;;;;;;;;;;35.07;15.72;99998.50;5322563;32;45273;-74
2022/07/25 14:30:51;;;;;;;;;;;;;;;35.72;15.13;99988.53;5345284;32;35297;-75
2022/07/25 14:33:53;;;;;;;;;;;;;;;35.34;15.34;99982.56;5354211;32;34017;-74
2022/07/25 14:36:55;;;;;;;;;;;;;;;35.21;15.64;99989.06;5338012;32;34291;-72
2022/07/25 14:39:58;;;;;;;;;;;;;;;34.95;16.19;99982.88;5358284;32;35084;-69
2022/07/25 14:42:59;;;;;;;;;;;;;;;35.25;15.59;99979.34;5342174;32;35509;-76
2022/07/25 14:46:01;;;;;;;;;;;;;;;35.20;15.53;99971.84;5359933;32;34291;-75
2022/07/25 14:49:04;;;;;;;;;;;;;;;35.51;15.29;99970.78;5329481;32;35648;-72
2022/07/25 14:52:07;;;;;;;;;;;;;;;35.50;14.96;99966.41;5330582;32;36562;-75
2022/07/25 14:55:09;;;;;;;;;;;;;;;34.65;15.78;99957.38;5358240;32;35121;-74
2022/07/25 14:58:12;;;;;;;;;;;;;;;34.92;15.48;99953.31;5339720;32;35536;-76
2022/07/25 15:01:17;;;;;;;;;;;;;;;35.35;15.17;99944.09;5355272;32;34589;-72
2022/07/25 15:04:21;;;;;;;;;;;;;;;35.46;15.18;99942.50;5341936;32;44572;-81
2022/07/25 15:07:24;;;;;;;;;;;;;;;34.58;16.17;99945.69;5355161;32;34164;-75
2022/07/25 15:10:26;;;;;;;;;;;;;;;35.04;15.67;99936.12;5355147;32;34686;-74
2022/07/25 15:13:28;;;;;;;;;;;;;;;35.60;15.38;99930.28;5340614;32;35471;-78
2022/07/25 15:16:35;;;;;;;;;;;;;;;35.26;15.78;99929.09;5367299;32;35573;-78
2022/07/25 15:19:37;;;;;;;;;;;;;;;35.50;15.76;99924.59;5348425;32;34009;-79
2022/07/25 15:22:39;;;;;;;;;;;;;;;34.72;16.33;99919.94;5350600;32;34215;-75
2022/07/25 15:25:41;;;;;;;;;;;;;;;34.32;16.66;99914.88;5344054;32;32509;-83
2022/07/25 15:29:05;;;;;;;;;;;;;;;35.44;15.41;99914.59;5345655;32;33126;-73
2022/07/25 15:32:08;;;;;;;;;;;;;;;35.81;15.04;99910.63;5356898;32;35689;-73
2022/07/25 15:35:10;;;;;;;;;;;;;;;35.38;15.57;99904.56;5344006;32;34181;-74
2022/07/25 15:38:15;;;;;;;;;;;;;;;35.29;15.75;99898.56;5357678;32;34288;-82
2022/07/25 15:41:17;;;;;;;;;;;;;;;35.62;15.40;99900.84;5345840;32;34786;-79
2022/07/25 15:44:19;;;;;;;;;;;;;;;35.77;15.28;99897.62;5357144;32;43474;-80
2022/07/25 15:47:21;;;;;;;;;;;;;;;34.69;16.33;99885.72;5353322;32;35417;-73
2022/07/25 15:50:23;;;;;;;;;;;;;;;34.82;16.26;99889.34;5335310;32;34284;-75
2022/07/25 15:53:25;;;;;;;;;;;;;;;35.09;15.94;99898.03;5354681;32;35611;-80